Time;durP1;ratioP1;P1;durP2;ratioP2;P2;SDS_P1;SDS_P2;PMS_P1;PMS_P2;Temp;Humidity;BMP_temperature;BMP_pressure;BME280_temperature;BME280_humidity;BME280_pressure;Samples;Min_cycle;Max_cycle;Signal;HPM_P1;HPM_P2
2022/03/20 00:01:23;;;;;;;11.57;3.22;;;;;;;;;;5050762;28;20053;-67
2022/03/20 00:03:50;;;;;;;7.32;2.92;;;;;;;;;;5023458;28;20048;-67
2022/03/20 00:06:16;;;;;;;7.25;3.00;;;;;;;;;;5049014;28;20052;-67
2022/03/20 00:08:43;;;;;;;10.05;3.08;;;;;;;;;;5029313;28;20464;-67
2022/03/20 00:11:09;;;;;;;12.10;3.10;;;;;;;;;;5035631;28;20390;-67
2022/03/20 00:13:36;;;;;;;7.38;2.90;;;;;;;;;;5045690;28;20107;-67
2022/03/20 00:16:03;;;;;;;10.80;2.80;;;;;;;;;;5046177;28;20118;-69
2022/03/20 00:18:30;;;;;;;9.55;3.40;;;;;;;;;;5055389;28;20037;-67
2022/03/20 00:20:57;;;;;;;9.65;3.00;;;;;;;;;;5054332;28;20044;-69
2022/03/20 00:23:24;;;;;;;9.82;3.33;;;;;;;;;;5055769;28;20045;-69
2022/03/20 00:25:51;;;;;;;9.15;2.95;;;;;;;;;;5055281;28;20135;-67
2022/03/20 00:28:19;;;;;;;6.60;2.47;;;;;;;;;;5055442;28;20053;-67
2022/03/20 00:30:47;;;;;;;8.73;2.67;;;;;;;;;;5055150;28;20278;-67
2022/03/20 00:33:13;;;;;;;7.15;3.08;;;;;;;;;;5054115;28;20052;-67
2022/03/20 00:35:40;;;;;;;6.13;3.20;;;;;;;;;;5055182;28;20045;-67
2022/03/20 00:38:07;;;;;;;10.20;3.13;;;;;;;;;;5054047;28;20549;-67
2022/03/20 00:40:34;;;;;;;7.07;3.30;;;;;;;;;;5052015;28;20435;-67
2022/03/20 00:43:01;;;;;;;12.38;3.15;;;;;;;;;;5055055;28;20052;-67
2022/03/20 00:45:28;;;;;;;8.30;2.78;;;;;;;;;;5055127;28;20130;-67
2022/03/20 00:47:55;;;;;;;6.10;2.53;;;;;;;;;;5054856;28;20064;-67
2022/03/20 00:50:21;;;;;;;6.93;3.70;;;;;;;;;;5054727;28;20696;-67
2022/03/20 00:52:48;;;;;;;12.13;3.63;;;;;;;;;;5054947;28;20118;-67
2022/03/20 00:55:15;;;;;;;6.85;2.60;;;;;;;;;;5055010;28;20538;-67
2022/03/20 00:57:41;;;;;;;6.53;2.67;;;;;;;;;;5054507;28;20456;-67
2022/03/20 01:00:08;;;;;;;10.10;3.03;;;;;;;;;;5054672;28;20048;-67
2022/03/20 01:02:38;;;;;;;6.55;2.67;;;;;;;;;;5054698;28;20049;-67
2022/03/20 01:05:05;;;;;;;8.80;3.10;;;;;;;;;;5054518;28;20060;-67
2022/03/20 01:07:32;;;;;;;7.75;3.38;;;;;;;;;;5054712;28;20119;-67
2022/03/20 01:10:01;;;;;;;8.48;2.58;;;;;;;;;;5054281;28;20118;-67
2022/03/20 01:12:28;;;;;;;7.07;3.25;;;;;;;;;;5053163;28;20095;-69
2022/03/20 01:14:55;;;;;;;11.45;3.20;;;;;;;;;;5053340;28;20440;-69
2022/03/20 01:17:22;;;;;;;8.73;3.25;;;;;;;;;;5053331;28;20104;-69
2022/03/20 01:19:49;;;;;;;8.60;3.45;;;;;;;;;;5053373;28;20091;-69
2022/03/20 01:22:16;;;;;;;6.38;2.33;;;;;;;;;;5052904;28;20098;-69
2022/03/20 01:24:43;;;;;;;7.90;3.03;;;;;;;;;;5052988;28;20095;-69
2022/03/20 01:27:09;;;;;;;9.20;3.90;;;;;;;;;;5052044;28;20057;-69
2022/03/20 01:29:36;;;;;;;11.98;2.95;;;;;;;;;;5052778;28;20113;-69
2022/03/20 01:32:03;;;;;;;8.70;3.15;;;;;;;;;;5053035;28;20045;-69
2022/03/20 01:34:29;;;;;;;6.75;3.22;;;;;;;;;;5052765;28;20053;-69
2022/03/20 01:36:57;;;;;;;10.40;3.38;;;;;;;;;;5052952;28;20056;-69
2022/03/20 01:39:23;;;;;;;8.75;2.90;;;;;;;;;;5052647;28;20127;-67
2022/03/20 01:41:50;;;;;;;9.65;2.60;;;;;;;;;;5042708;28;20098;-67
2022/03/20 01:44:16;;;;;;;5.97;2.53;;;;;;;;;;5053139;28;20048;-67
2022/03/20 01:46:43;;;;;;;7.00;2.75;;;;;;;;;;5052728;28;20045;-67
2022/03/20 01:49:09;;;;;;;10.18;2.63;;;;;;;;;;5041706;28;20060;-67
2022/03/20 01:54:21;;;;;;;8.98;3.28;;;;;;;;;;5052761;28;20045;-67
2022/03/20 01:56:51;;;;;;;7.35;2.60;;;;;;;;;;5052417;28;20106;-67
2022/03/20 01:59:18;;;;;;;5.70;2.40;;;;;;;;;;5052428;28;20045;-68
2022/03/20 02:01:44;;;;;;;8.48;2.38;;;;;;;;;;5052695;28;20106;-68
2022/03/20 02:04:12;;;;;;;8.27;2.60;;;;;;;;;;5052681;28;20056;-69
2022/03/20 02:06:40;;;;;;;9.60;2.65;;;;;;;;;;5051515;28;20106;-69
2022/03/20 02:09:06;;;;;;;8.00;2.50;;;;;;;;;;5047312;28;20048;-69
2022/03/20 02:11:33;;;;;;;9.23;2.53;;;;;;;;;;5002998;28;1203665;-69
2022/03/20 02:14:00;;;;;;;8.82;2.78;;;;;;;;;;5053177;28;20485;-69
2022/03/20 02:16:26;;;;;;;8.70;2.90;;;;;;;;;;5053493;28;20053;-69
2022/03/20 02:18:54;;;;;;;7.80;2.75;;;;;;;;;;5053146;28;20076;-69
2022/03/20 02:21:40;;;;;;;10.43;2.97;;;;;;;;;;5053265;28;20106;-70
2022/03/20 02:24:27;;;;;;;5.88;2.45;;;;;;;;;;5053004;28;20110;-69
2022/03/20 02:27:02;;;;;;;6.40;2.28;;;;;;;;;;5052528;28;20052;-69
2022/03/20 02:29:29;;;;;;;9.63;2.55;;;;;;;;;;5053040;28;20063;-69
2022/03/20 02:31:57;;;;;;;5.55;2.38;;;;;;;;;;5053158;28;20045;-69
2022/03/20 02:34:25;;;;;;;6.75;2.40;;;;;;;;;;5052985;28;20140;-69
2022/03/20 02:36:52;;;;;;;6.75;2.47;;;;;;;;;;5052515;28;20098;-70
2022/03/20 02:39:18;;;;;;;10.23;2.88;;;;;;;;;;5051591;28;20099;-70
2022/03/20 02:41:45;;;;;;;9.82;2.83;;;;;;;;;;5039764;28;20374;-70
2022/03/20 02:44:12;;;;;;;8.32;2.75;;;;;;;;;;5053012;28;20056;-69
2022/03/20 02:46:38;;;;;;;6.53;2.30;;;;;;;;;;5052801;28;20459;-69
2022/03/20 02:49:06;;;;;;;9.07;3.38;;;;;;;;;;5051538;28;20106;-69
2022/03/20 02:51:35;;;;;;;6.65;2.53;;;;;;;;;;5052517;28;20463;-69
2022/03/20 02:54:02;;;;;;;6.63;2.50;;;;;;;;;;5051188;28;20484;-69
2022/03/20 02:56:29;;;;;;;7.80;2.05;;;;;;;;;;5052415;28;20045;-69
2022/03/20 02:58:56;;;;;;;6.65;2.50;;;;;;;;;;5052352;28;20045;-69
2022/03/20 03:01:22;;;;;;;7.25;2.55;;;;;;;;;;5052341;28;20079;-69
2022/03/20 03:03:49;;;;;;;7.90;2.17;;;;;;;;;;5052400;28;20052;-69
2022/03/20 03:06:16;;;;;;;7.28;2.40;;;;;;;;;;5052372;28;20044;-69
2022/03/20 03:11:27;;;;;;;10.35;2.83;;;;;;;;;;5052122;28;20061;-69
2022/03/20 03:13:54;;;;;;;11.32;3.00;;;;;;;;;;5052230;28;20067;-69
2022/03/20 03:16:20;;;;;;;9.45;2.78;;;;;;;;;;5052777;28;20095;-69
2022/03/20 03:18:47;;;;;;;10.25;2.30;;;;;;;;;;5051665;28;20098;-69
2022/03/20 03:21:15;;;;;;;9.52;2.30;;;;;;;;;;5038479;28;20509;-68
2022/03/20 03:23:42;;;;;;;5.18;2.13;;;;;;;;;;5051915;28;20053;-67
2022/03/20 03:26:09;;;;;;;9.50;3.00;;;;;;;;;;5051848;28;20041;-67
2022/03/20 03:28:36;;;;;;;6.95;2.20;;;;;;;;;;5051982;28;20049;-67
2022/03/20 03:31:06;;;;;;;6.43;2.43;;;;;;;;;;5051796;28;20041;-67
2022/03/20 03:33:33;;;;;;;7.38;2.88;;;;;;;;;;5051805;28;20060;-67
2022/03/20 03:35:59;;;;;;;7.65;2.20;;;;;;;;;;5051981;28;20079;-67
2022/03/20 03:38:27;;;;;;;7.32;2.22;;;;;;;;;;5051753;28;20089;-67
2022/03/20 03:40:56;;;;;;;10.52;2.55;;;;;;;;;;5042809;28;20095;-67
2022/03/20 03:43:23;;;;;;;7.28;2.78;;;;;;;;;;5052049;28;20049;-67
2022/03/20 03:45:50;;;;;;;5.70;2.13;;;;;;;;;;5051796;28;20053;-67
2022/03/20 03:48:16;;;;;;;6.65;2.63;;;;;;;;;;5051680;28;20122;-67
2022/03/20 03:50:44;;;;;;;8.82;2.80;;;;;;;;;;5051748;28;20060;-67
2022/03/20 03:53:10;;;;;;;7.45;2.28;;;;;;;;;;5051689;28;20132;-67
2022/03/20 03:55:37;;;;;;;7.90;2.70;;;;;;;;;;5051678;28;20102;-67
2022/03/20 03:58:04;;;;;;;7.22;2.67;;;;;;;;;;5051712;28;20045;-67
2022/03/20 04:00:34;;;;;;;4.13;1.95;;;;;;;;;;5051810;28;20386;-67
2022/03/20 04:03:01;;;;;;;5.22;2.10;;;;;;;;;;5051638;28;20053;-67
2022/03/20 04:05:29;;;;;;;4.45;2.30;;;;;;;;;;5051397;28;20063;-67
2022/03/20 04:07:55;;;;;;;6.90;2.03;;;;;;;;;;5051732;28;20136;-66
2022/03/20 04:10:23;;;;;;;8.07;2.40;;;;;;;;;;5051105;28;20057;-67
2022/03/20 04:12:49;;;;;;;9.43;3.15;;;;;;;;;;5051543;28;20052;-67
2022/03/20 04:15:17;;;;;;;5.32;2.22;;;;;;;;;;5051534;28;20534;-67
2022/03/20 04:17:44;;;;;;;7.35;2.45;;;;;;;;;;5051245;28;20102;-67
2022/03/20 04:20:12;;;;;;;6.47;2.22;;;;;;;;;;5051813;28;20167;-67
2022/03/20 04:22:40;;;;;;;6.57;2.20;;;;;;;;;;5051474;28;20049;-67
2022/03/20 04:25:07;;;;;;;7.28;2.10;;;;;;;;;;5051551;28;20443;-67
2022/03/20 04:27:33;;;;;;;4.68;2.65;;;;;;;;;;5051404;28;20182;-67
2022/03/20 04:30:00;;;;;;;6.55;2.80;;;;;;;;;;5051364;28;20452;-67
2022/03/20 04:32:26;;;;;;;7.55;2.17;;;;;;;;;;5051081;28;20049;-67
2022/03/20 04:34:53;;;;;;;6.93;2.67;;;;;;;;;;5051172;28;20048;-67
2022/03/20 04:37:21;;;;;;;7.82;2.50;;;;;;;;;;5050313;28;20386;-67
2022/03/20 04:39:48;;;;;;;6.88;2.83;;;;;;;;;;5050893;28;20045;-67
2022/03/20 04:42:15;;;;;;;7.88;2.67;;;;;;;;;;5042957;28;20463;-67
2022/03/20 04:44:43;;;;;;;5.22;2.40;;;;;;;;;;5051266;28;20455;-67
2022/03/20 04:58:29;;;;;;;9.15;2.22;;;;;;;;;;5051019;28;20132;-67
2022/03/20 04:58:31;;;;;;;4.43;2.17;;;;;;;;;;5050959;28;20037;-66
2022/03/20 05:00:57;;;;;;;6.97;2.42;;;;;;;;;;5054304;28;20214;-66
2022/03/20 05:03:24;;;;;;;10.80;2.92;;;;;;;;;;5054733;28;20068;-66
2022/03/20 05:05:51;;;;;;;5.45;2.40;;;;;;;;;;5054437;28;20110;-67
2022/03/20 05:08:17;;;;;;;8.13;2.95;;;;;;;;;;5054690;28;20085;-67
2022/03/20 05:13:30;;;;;;;7.65;2.65;;;;;;;;;;5054644;28;20049;-67
2022/03/20 05:15:57;;;;;;;4.80;2.30;;;;;;;;;;5054501;28;20048;-67
2022/03/20 05:18:24;;;;;;;5.50;3.25;;;;;;;;;;5054830;28;20055;-67
2022/03/20 05:20:52;;;;;;;6.85;2.65;;;;;;;;;;5054483;28;20056;-67
2022/03/20 05:23:20;;;;;;;9.43;2.90;;;;;;;;;;5054461;28;20139;-67
2022/03/20 05:25:47;;;;;;;5.25;2.22;;;;;;;;;;5054050;28;20104;-67
2022/03/20 05:28:15;;;;;;;7.10;2.33;;;;;;;;;;5054447;28;20477;-67
2022/03/20 05:30:42;;;;;;;5.15;2.10;;;;;;;;;;5054204;28;20056;-67
2022/03/20 05:33:12;;;;;;;9.87;2.83;;;;;;;;;;5054088;28;20095;-66
2022/03/20 05:35:39;;;;;;;6.68;2.58;;;;;;;;;;5054214;28;20052;-67
2022/03/20 05:38:09;;;;;;;6.00;3.03;;;;;;;;;;5053975;28;20076;-67
2022/03/20 05:40:39;;;;;;;8.60;2.72;;;;;;;;;;5047306;28;20100;-67
2022/03/20 05:43:08;;;;;;;6.32;2.10;;;;;;;;;;5052673;28;20049;-66
2022/03/20 05:45:40;;;;;;;5.03;2.05;;;;;;;;;;5054367;28;20280;-66
2022/03/20 05:48:10;;;;;;;4.63;2.35;;;;;;;;;;5054240;28;20059;-66
2022/03/20 05:50:41;;;;;;;4.22;2.40;;;;;;;;;;5053963;28;20408;-66
2022/03/20 05:53:08;;;;;;;5.20;2.28;;;;;;;;;;5053680;28;20045;-66
2022/03/20 05:58:19;;;;;;;6.22;2.33;;;;;;;;;;5053605;28;20091;-67
2022/03/20 06:00:45;;;;;;;9.45;2.80;;;;;;;;;;5053621;28;20386;-67
2022/03/20 06:03:12;;;;;;;5.28;2.35;;;;;;;;;;5052110;28;20136;-67
2022/03/20 06:05:39;;;;;;;5.13;2.25;;;;;;;;;;5053403;28;20061;-67
2022/03/20 06:08:06;;;;;;;7.43;2.13;;;;;;;;;;5051995;28;20107;-67
2022/03/20 06:10:33;;;;;;;9.02;2.55;;;;;;;;;;5052716;28;20134;-67
2022/03/20 06:13:02;;;;;;;6.50;2.25;;;;;;;;;;5052873;28;20048;-67
2022/03/20 06:15:28;;;;;;;6.82;2.60;;;;;;;;;;5052981;28;20048;-67
2022/03/20 06:17:55;;;;;;;7.57;2.22;;;;;;;;;;5053188;28;20045;-67
2022/03/20 06:20:21;;;;;;;6.50;2.22;;;;;;;;;;5053055;28;20052;-67
2022/03/20 06:22:49;;;;;;;5.05;2.25;;;;;;;;;;5053021;28;20055;-67
2022/03/20 06:25:16;;;;;;;4.88;2.40;;;;;;;;;;5053182;28;20489;-67
2022/03/20 06:27:50;;;;;;;7.68;2.38;;;;;;;;;;5052924;28;20067;-67
2022/03/20 06:30:17;;;;;;;6.30;2.03;;;;;;;;;;5052916;28;20099;-67
2022/03/20 06:32:44;;;;;;;5.32;2.60;;;;;;;;;;5053239;28;20467;-67
2022/03/20 06:35:12;;;;;;;6.80;2.20;;;;;;;;;;5053066;28;20055;-69
2022/03/20 06:37:39;;;;;;;7.15;2.40;;;;;;;;;;5053035;28;20076;-69
2022/03/20 06:40:07;;;;;;;6.07;2.17;;;;;;;;;;5049873;28;20053;-69
2022/03/20 06:42:34;;;;;;;6.80;2.73;;;;;;;;;;5046791;28;20055;-69
2022/03/20 06:45:01;;;;;;;6.38;2.40;;;;;;;;;;5053352;28;20278;-69
2022/03/20 06:47:28;;;;;;;6.97;2.08;;;;;;;;;;5052663;28;20057;-69
2022/03/20 06:49:55;;;;;;;7.45;2.75;;;;;;;;;;5052804;28;20448;-69
2022/03/20 06:52:22;;;;;;;5.07;2.28;;;;;;;;;;5052508;28;20053;-68
2022/03/20 06:54:49;;;;;;;8.13;2.47;;;;;;;;;;5052519;28;20041;-69
2022/03/20 06:57:20;;;;;;;6.63;2.15;;;;;;;;;;5052722;28;20053;-69
2022/03/20 06:59:46;;;;;;;4.60;2.22;;;;;;;;;;5052652;28;20079;-69
2022/03/20 07:02:13;;;;;;;5.57;2.38;;;;;;;;;;5052594;28;20036;-69
2022/03/20 07:04:40;;;;;;;6.13;2.20;;;;;;;;;;5051347;28;20060;-67
2022/03/20 07:07:06;;;;;;;4.72;2.15;;;;;;;;;;5052572;28;20057;-67
2022/03/20 07:09:33;;;;;;;5.68;2.40;;;;;;;;;;5052551;28;20049;-66
2022/03/20 07:12:00;;;;;;;6.85;2.00;;;;;;;;;;5035128;28;20123;-70
2022/03/20 07:14:26;;;;;;;9.00;2.20;;;;;;;;;;5031573;28;20160;-69
2022/03/20 07:16:53;;;;;;;5.70;2.45;;;;;;;;;;5041303;28;20045;-69
2022/03/20 07:19:19;;;;;;;2.95;1.92;;;;;;;;;;5052040;28;20110;-70
2022/03/20 07:21:46;;;;;;;6.32;2.30;;;;;;;;;;5051710;28;20102;-68
2022/03/20 07:24:12;;;;;;;6.65;2.50;;;;;;;;;;5051439;28;20044;-68
2022/03/20 07:29:30;;;;;;;5.40;2.17;;;;;;;;;;5051755;28;20127;-70
2022/03/20 07:31:57;;;;;;;6.03;2.15;;;;;;;;;;5051590;28;20061;-70
2022/03/20 07:34:24;;;;;;;4.32;2.10;;;;;;;;;;5038981;28;20111;-69
2022/03/20 07:36:51;;;;;;;6.07;2.50;;;;;;;;;;5031648;28;20052;-69
2022/03/20 07:39:17;;;;;;;5.00;2.40;;;;;;;;;;5031747;28;20103;-68
2022/03/20 07:41:44;;;;;;;6.18;2.45;;;;;;;;;;5031608;28;20115;-68
2022/03/20 07:44:10;;;;;;;6.15;2.60;;;;;;;;;;5030146;28;20468;-70
2022/03/20 07:46:38;;;;;;;8.05;3.03;;;;;;;;;;5031181;28;20107;-70
2022/03/20 07:49:07;;;;;;;7.97;2.70;;;;;;;;;;5030809;28;20489;-71
2022/03/20 07:51:37;;;;;;;5.28;2.25;;;;;;;;;;5030032;28;20069;-67
2022/03/20 07:54:03;;;;;;;4.40;2.63;;;;;;;;;;5033596;28;20088;-67
2022/03/20 07:56:34;;;;;;;5.32;2.80;;;;;;;;;;5033601;28;20049;-67
2022/03/20 07:59:05;;;;;;;6.00;3.00;;;;;;;;;;5050387;28;20128;-70
2022/03/20 08:01:41;;;;;;;3.80;2.72;;;;;;;;;;5030254;28;20050;-72
2022/03/20 08:04:08;;;;;;;6.25;2.72;;;;;;;;;;5030934;28;20141;-71
2022/03/20 08:06:35;;;;;;;6.53;3.42;;;;;;;;;;5031700;28;20041;-73
2022/03/20 08:09:01;;;;;;;9.32;3.50;;;;;;;;;;5036180;28;20053;-72
2022/03/20 08:11:28;;;;;;;5.65;2.53;;;;;;;;;;5030937;28;20083;-75
2022/03/20 08:13:56;;;;;;;5.20;2.80;;;;;;;;;;5031493;28;20057;-73
2022/03/20 08:16:25;;;;;;;4.60;2.42;;;;;;;;;;5049864;28;20373;-72
2022/03/20 08:18:53;;;;;;;7.20;2.53;;;;;;;;;;5051817;28;20041;-71
2022/03/20 08:21:19;;;;;;;3.65;2.92;;;;;;;;;;5051385;28;20045;-70
2022/03/20 08:23:46;;;;;;;3.80;2.10;;;;;;;;;;5039765;28;20357;-71
2022/03/20 08:26:12;;;;;;;4.75;2.67;;;;;;;;;;5037516;28;20040;-70
2022/03/20 08:28:41;;;;;;;3.65;2.20;;;;;;;;;;5043969;28;20049;-68
2022/03/20 08:31:08;;;;;;;5.63;2.25;;;;;;;;;;5031193;28;20057;-68
2022/03/20 08:33:35;;;;;;;6.07;2.78;;;;;;;;;;5039431;28;20069;-67
2022/03/20 08:36:03;;;;;;;5.65;2.60;;;;;;;;;;5054467;28;20102;-69
2022/03/20 08:38:29;;;;;;;5.28;2.05;;;;;;;;;;5055578;28;20107;-70
2022/03/20 08:40:56;;;;;;;5.20;2.45;;;;;;;;;;5045397;28;20057;-68
2022/03/20 08:43:22;;;;;;;4.00;2.35;;;;;;;;;;5047902;28;20524;-68
2022/03/20 08:45:50;;;;;;;6.85;3.78;;;;;;;;;;5032999;28;20045;-67
2022/03/20 08:48:18;;;;;;;5.88;2.78;;;;;;;;;;5033940;28;20053;-69
2022/03/20 08:50:48;;;;;;;3.75;2.40;;;;;;;;;;5033284;28;20053;-68
2022/03/20 08:53:19;;;;;;;5.03;2.53;;;;;;;;;;5034959;28;20068;-67
2022/03/20 08:55:46;;;;;;;5.63;2.50;;;;;;;;;;5037651;28;20444;-67
2022/03/20 08:58:12;;;;;;;5.68;2.40;;;;;;;;;;5034498;28;20095;-67
2022/03/20 09:00:39;;;;;;;4.00;2.15;;;;;;;;;;5034290;28;20057;-67
2022/03/20 09:03:06;;;;;;;5.80;3.28;;;;;;;;;;5034281;28;20109;-67
2022/03/20 09:05:33;;;;;;;7.15;3.47;;;;;;;;;;5034435;28;20059;-67
2022/03/20 09:07:59;;;;;;;4.40;2.67;;;;;;;;;;5033139;28;20041;-67
2022/03/20 09:10:26;;;;;;;4.55;2.70;;;;;;;;;;5033964;28;20127;-68
2022/03/20 09:12:57;;;;;;;4.67;2.90;;;;;;;;;;5036366;28;20103;-68
2022/03/20 09:15:24;;;;;;;3.97;3.00;;;;;;;;;;5040604;28;20092;-68
2022/03/20 09:20:37;;;;;;;5.95;2.90;;;;;;;;;;5038046;28;20179;-69
2022/03/20 09:23:08;;;;;;;4.40;3.28;;;;;;;;;;5034195;28;20088;-69
2022/03/20 09:25:34;;;;;;;4.90;3.50;;;;;;;;;;5041962;28;20092;-69
2022/03/20 09:28:04;;;;;;;4.80;3.13;;;;;;;;;;5033849;28;20101;-69
2022/03/20 09:30:31;;;;;;;5.63;3.90;;;;;;;;;;5033740;28;20127;-68
2022/03/20 09:32:57;;;;;;;6.90;3.55;;;;;;;;;;5033796;28;20449;-69
2022/03/20 09:35:24;;;;;;;6.75;2.97;;;;;;;;;;5032403;28;20041;-68
2022/03/20 09:37:50;;;;;;;4.60;3.47;;;;;;;;;;5033262;28;20444;-69
2022/03/20 09:40:21;;;;;;;5.27;3.50;;;;;;;;;;5032189;28;20567;-68
2022/03/20 09:42:48;;;;;;;5.20;3.75;;;;;;;;;;5039859;28;20056;-68
2022/03/20 09:45:17;;;;;;;5.45;3.72;;;;;;;;;;5033335;28;20103;-69
2022/03/20 09:47:43;;;;;;;5.30;3.83;;;;;;;;;;5033555;28;20459;-68
2022/03/20 09:50:10;;;;;;;5.00;4.05;;;;;;;;;;5030768;28;20095;-68
2022/03/20 09:52:37;;;;;;;;;;;;;;;;;;5034006;28;20041;-68
2022/03/20 09:55:04;;;;;;;6.35;4.10;;;;;;;;;;5033641;28;19971;-69
2022/03/20 09:57:31;;;;;;;6.65;4.28;;;;;;;;;;5040444;28;20323;-67
2022/03/20 09:59:58;;;;;;;7.55;4.03;;;;;;;;;;5048028;28;20052;-67
2022/03/20 10:02:28;;;;;;;6.05;4.10;;;;;;;;;;5033049;28;20444;-72
2022/03/20 10:04:56;;;;;;;5.72;4.25;;;;;;;;;;5046718;28;20041;-68
2022/03/20 10:07:24;;;;;;;6.00;4.35;;;;;;;;;;5053500;28;20052;-67
2022/03/20 10:10:09;;;;;;;6.72;4.45;;;;;;;;;;5052965;28;20049;-71
2022/03/20 10:12:37;;;;;;;6.28;4.40;;;;;;;;;;5053550;28;20456;-70
2022/03/20 10:15:05;;;;;;;5.20;4.55;;;;;;;;;;5052147;28;20075;-70
2022/03/20 10:17:39;;;;;;;6.97;4.70;;;;;;;;;;5053713;28;20128;-69
2022/03/20 10:20:12;;;;;;;7.63;4.60;;;;;;;;;;5053109;28;20098;-67
2022/03/20 10:22:39;;;;;;;6.78;4.60;;;;;;;;;;5037528;28;20480;-70
2022/03/20 10:25:08;;;;;;;6.90;4.82;;;;;;;;;;5034227;28;20074;-69
2022/03/20 10:27:35;;;;;;;6.70;5.13;;;;;;;;;;5049412;28;20048;-71
2022/03/20 10:30:02;;;;;;;6.85;4.72;;;;;;;;;;5028946;28;20501;-70
2022/03/20 10:32:28;;;;;;;5.10;4.53;;;;;;;;;;5051848;28;20516;-71
2022/03/20 10:34:59;;;;;;;8.45;5.00;;;;;;;;;;5052207;28;20048;-71
2022/03/20 10:37:44;;;;;;;5.05;4.38;;;;;;;;;;5052951;28;20440;-71
2022/03/20 10:40:12;;;;;;;5.57;4.75;;;;;;;;;;5048613;28;20092;-71
2022/03/20 10:42:38;;;;;;;5.72;4.65;;;;;;;;;;5048493;28;20512;-71
2022/03/20 10:45:05;;;;;;;5.90;4.90;;;;;;;;;;5051803;28;20041;-68
2022/03/20 10:47:32;;;;;;;6.82;4.88;;;;;;;;;;5052866;28;20122;-69
2022/03/20 10:50:01;;;;;;;6.18;4.88;;;;;;;;;;5052657;28;20057;-69
2022/03/20 10:52:29;;;;;;;5.80;4.95;;;;;;;;;;5052913;28;20564;-69
2022/03/20 10:54:56;;;;;;;7.38;5.15;;;;;;;;;;5052571;28;20081;-74
2022/03/20 10:57:32;;;;;;;6.15;5.00;;;;;;;;;;5051970;28;20045;-71
2022/03/20 11:00:05;;;;;;;6.82;4.97;;;;;;;;;;5052327;28;20053;-71
2022/03/20 11:02:34;;;;;;;7.18;4.78;;;;;;;;;;5052519;28;20485;-70
2022/03/20 11:05:01;;;;;;;5.65;4.82;;;;;;;;;;5052640;28;20045;-73
2022/03/20 11:07:28;;;;;;;7.68;5.32;;;;;;;;;;5051955;28;20056;-71
2022/03/20 11:09:55;;;;;;;5.70;5.10;;;;;;;;;;5051899;28;20057;-70
2022/03/20 11:12:23;;;;;;;6.47;5.15;;;;;;;;;;5032696;28;20050;-73
2022/03/20 11:14:51;;;;;;;6.25;5.15;;;;;;;;;;5032111;28;20045;-73
2022/03/20 11:17:20;;;;;;;6.38;5.22;;;;;;;;;;5047966;28;20459;-70
2022/03/20 11:19:49;;;;;;;5.32;4.80;;;;;;;;;;5051792;28;20098;-71
2022/03/20 11:22:18;;;;;;;5.28;4.60;;;;;;;;;;5051793;28;20098;-71
2022/03/20 11:24:45;;;;;;;5.18;4.47;;;;;;;;;;5052189;28;20059;-71
2022/03/20 11:27:14;;;;;;;4.70;4.07;;;;;;;;;;5051739;28;20056;-70
2022/03/20 11:29:43;;;;;;;5.43;4.30;;;;;;;;;;5046584;28;20115;-71
2022/03/20 11:32:10;;;;;;;4.72;4.20;;;;;;;;;;5023940;28;20065;-71
2022/03/20 11:34:37;;;;;;;5.90;4.65;;;;;;;;;;5027842;28;20056;-71
2022/03/20 11:37:03;;;;;;;;;;;;;;;;;;5030738;28;20111;-71
2022/03/20 11:39:30;;;;;;;5.28;4.22;;;;;;;;;;5031179;28;19921;-72
2022/03/20 11:42:15;;;;;;;6.18;4.93;;;;;;;;;;5048963;28;20095;-72
2022/03/20 11:45:10;;;;;;;7.53;5.28;;;;;;;;;;5051667;28;20475;-73
2022/03/20 11:47:40;;;;;;;6.03;5.43;;;;;;;;;;5049316;28;20049;-71
2022/03/20 11:50:07;;;;;;;5.85;4.80;;;;;;;;;;5051928;28;20441;-70
2022/03/20 11:52:48;;;;;;;6.13;4.72;;;;;;;;;;5038680;28;20156;-71
2022/03/20 11:55:27;;;;;;;6.15;5.38;;;;;;;;;;5049169;28;20049;-73
2022/03/20 11:57:53;;;;;;;5.60;5.00;;;;;;;;;;5050854;28;20124;-71
2022/03/20 12:00:44;;;;;;;6.50;5.68;;;;;;;;;;5051359;28;20048;-72
2022/03/20 12:03:14;;;;;;;6.40;5.15;;;;;;;;;;5050997;28;20049;-71
2022/03/20 12:05:41;;;;;;;7.18;5.38;;;;;;;;;;5051352;28;20079;-73
2022/03/20 12:08:10;;;;;;;6.45;5.72;;;;;;;;;;5052210;28;20174;-71
2022/03/20 12:10:36;;;;;;;7.97;5.85;;;;;;;;;;5055463;28;20106;-72
2022/03/20 12:13:18;;;;;;;6.82;5.53;;;;;;;;;;5055882;28;20090;-72
2022/03/20 12:15:45;;;;;;;6.13;5.57;;;;;;;;;;5054463;28;20037;-72
2022/03/20 12:18:12;;;;;;;6.72;5.65;;;;;;;;;;5035592;28;20041;-71
2022/03/20 12:20:52;;;;;;;7.60;5.97;;;;;;;;;;5034962;28;20041;-71
2022/03/20 12:23:36;;;;;;;6.80;6.07;;;;;;;;;;5034057;28;20046;-71
2022/03/20 12:26:21;;;;;;;6.25;5.65;;;;;;;;;;5035051;28;20046;-71
2022/03/20 12:28:47;;;;;;;6.43;5.85;;;;;;;;;;5034830;28;20096;-71
2022/03/20 12:31:24;;;;;;;7.38;6.28;;;;;;;;;;5034569;28;20099;-72
2022/03/20 12:34:09;;;;;;;7.20;6.50;;;;;;;;;;5027471;28;20079;-72
2022/03/20 12:36:36;;;;;;;7.70;6.30;;;;;;;;;;5054808;28;20057;-72
2022/03/20 12:39:02;;;;;;;7.72;5.93;;;;;;;;;;5055186;28;20118;-72
2022/03/20 12:41:29;;;;;;;7.43;5.78;;;;;;;;;;5053544;28;20045;-72
2022/03/20 12:43:57;;;;;;;10.30;6.30;;;;;;;;;;5055616;28;20041;-72
2022/03/20 12:46:24;;;;;;;7.90;6.18;;;;;;;;;;5055169;28;20103;-72
2022/03/20 12:48:52;;;;;;;6.97;6.15;;;;;;;;;;5054850;28;20053;-72
2022/03/20 12:51:32;;;;;;;11.50;6.30;;;;;;;;;;5037394;28;20053;-72
2022/03/20 12:54:10;;;;;;;6.90;6.15;;;;;;;;;;5034764;28;20099;-72
2022/03/20 12:56:50;;;;;;;6.72;5.78;;;;;;;;;;5041073;28;20076;-72
2022/03/20 12:59:20;;;;;;;8.77;6.68;;;;;;;;;;5055255;28;20049;-72
2022/03/20 13:01:46;;;;;;;14.63;7.10;;;;;;;;;;5055270;28;20084;-72
2022/03/20 13:04:14;;;;;;;7.43;6.57;;;;;;;;;;5037889;28;20052;-72
2022/03/20 13:06:41;;;;;;;8.02;7.03;;;;;;;;;;5034418;28;20057;-72
2022/03/20 13:09:12;;;;;;;7.55;6.75;;;;;;;;;;5048971;28;20443;-72
2022/03/20 13:11:56;;;;;;;7.38;6.45;;;;;;;;;;5054410;28;20061;-72
2022/03/20 13:14:23;;;;;;;9.00;6.80;;;;;;;;;;5054442;28;20504;-72
2022/03/20 13:16:59;;;;;;;7.53;6.70;;;;;;;;;;5054259;28;20049;-73
2022/03/20 13:19:26;;;;;;;7.03;6.32;;;;;;;;;;5054314;28;20044;-73
2022/03/20 13:21:53;;;;;;;7.22;6.50;;;;;;;;;;5053606;28;20053;-73
2022/03/20 13:24:49;;;;;;;8.43;6.50;;;;;;;;;;5054547;28;20075;-71
2022/03/20 13:27:15;;;;;;;;;;;;;;;;;;5054025;28;20489;-72
2022/03/20 13:29:42;;;;;;;;;;;;;;;;;;5046433;28;19992;-72
2022/03/20 13:32:08;;;;;;;;;;;;;;;;;;5045876;28;20319;-71
2022/03/20 13:34:35;;;;;;;;;;;;;;;;;;5054157;28;19924;-73
2022/03/20 13:37:06;;;;;;;8.38;6.30;;;;;;;;;;5054250;28;19978;-72
2022/03/20 13:39:34;;;;;;;7.05;6.25;;;;;;;;;;5054038;28;20465;-73
2022/03/20 13:42:11;;;;;;;6.53;5.93;;;;;;;;;;5045383;28;20107;-72
2022/03/20 13:44:38;;;;;;;7.72;6.72;;;;;;;;;;5054225;28;20053;-72
2022/03/20 13:47:04;;;;;;;6.90;6.30;;;;;;;;;;5054136;28;20053;-75
2022/03/20 13:49:31;;;;;;;7.03;6.32;;;;;;;;;;5054000;28;20049;-72
2022/03/20 13:51:57;;;;;;;8.25;5.78;;;;;;;;;;5053940;28;20098;-73
2022/03/20 13:54:24;;;;;;;6.40;5.80;;;;;;;;;;5053688;28;20056;-72
2022/03/20 13:57:09;;;;;;;7.30;6.05;;;;;;;;;;5050825;28;20037;-73
2022/03/20 13:59:48;;;;;;;7.40;5.93;;;;;;;;;;5033463;28;20049;-71
2022/03/20 14:02:15;;;;;;;6.93;5.93;;;;;;;;;;5032152;28;20045;-71
2022/03/20 14:04:41;;;;;;;;;;;;;;;;;;5033678;28;20102;-71
2022/03/20 14:07:07;;;;;;;;;;;;;;;;;;5033493;28;19925;-72
2022/03/20 14:09:34;;;;;;;;;;;;;;;;;;5033693;28;19932;-73
2022/03/20 14:12:19;;;;;;;8.23;6.93;;;;;;;;;;5032984;28;19921;-72
2022/03/20 14:14:51;;;;;;;6.57;5.93;;;;;;;;;;5034748;28;20107;-74
2022/03/20 14:17:23;;;;;;;6.32;5.75;;;;;;;;;;5053491;28;20102;-73
2022/03/20 14:19:57;;;;;;;8.50;6.60;;;;;;;;;;5044490;28;20061;-72
2022/03/20 14:22:40;;;;;;;8.73;6.22;;;;;;;;;;5034545;28;20390;-72
2022/03/20 14:25:06;;;;;;;7.85;5.80;;;;;;;;;;5053260;28;20045;-73
2022/03/20 14:27:35;;;;;;;6.22;5.55;;;;;;;;;;5033223;28;20555;-72
2022/03/20 14:41:25;;;;;;;7.50;5.50;;;;;;;;;;5048512;28;20114;-71
2022/03/20 14:44:19;;;;;;;8.32;5.88;;;;;;;;;;5052962;28;20087;-71
2022/03/20 14:46:50;;;;;;;7.22;5.63;;;;;;;;;;5052761;28;20190;-71
2022/03/20 14:49:17;;;;;;;6.47;5.45;;;;;;;;;;5052846;28;20048;-71
2022/03/20 14:51:47;;;;;;;8.10;6.20;;;;;;;;;;5052846;28;20057;-70
2022/03/20 14:54:15;;;;;;;6.28;5.68;;;;;;;;;;5053073;28;20102;-71
2022/03/20 14:56:41;;;;;;;8.32;6.15;;;;;;;;;;5052695;28;20112;-71
2022/03/20 14:59:10;;;;;;;6.38;5.75;;;;;;;;;;5052477;28;20102;-71
2022/03/20 15:01:44;;;;;;;6.57;5.88;;;;;;;;;;5052649;28;20049;-71
2022/03/20 15:04:12;;;;;;;5.80;5.07;;;;;;;;;;5052648;28;20401;-71
2022/03/20 15:06:43;;;;;;;6.70;5.03;;;;;;;;;;5052314;28;20555;-71
2022/03/20 15:11:56;;;;;;;5.95;5.35;;;;;;;;;;5052292;28;20094;-72
2022/03/20 15:14:22;;;;;;;7.57;5.82;;;;;;;;;;5052143;28;20107;-72
2022/03/20 15:16:49;;;;;;;;;;;;;;;;;;5052830;28;20049;-72
2022/03/20 15:19:15;;;;;;;;;;;;;;;;;;5052782;28;20312;-72
2022/03/20 15:21:42;;;;;;;6.30;5.70;;;;;;;;;;5052164;28;20269;-71
2022/03/20 15:24:09;;;;;;;;;;;;;;;;;;5052521;28;20052;-72
2022/03/20 15:26:36;;;;;;;5.57;5.00;;;;;;;;;;5052338;28;19920;-72
2022/03/20 15:29:03;;;;;;;8.43;5.20;;;;;;;;;;5052097;28;20110;-71
2022/03/20 15:31:31;;;;;;;7.32;5.80;;;;;;;;;;5034664;28;20049;-72
2022/03/20 15:33:58;;;;;;;9.13;5.63;;;;;;;;;;5041139;28;20084;-71